METAR Data
IDs: Format: Raw Decoded Include TAF

Data at: 1233 UTC 09 Dec 2019

KSCX 091215Z AUTO 20012G23KT 10SM OVC016 09/07 A2992 RMK A01
KSCX 091155Z AUTO 19013G20KT 8SM OVC017 09/06 A2993 RMK A01
KSCX 091135Z AUTO 20013G19KT 10SM OVC017 09/06 A2995 RMK A01
KSCX 091115Z AUTO 21011G21KT 10SM OVC017 09/06 A2995 RMK A01
KSCX 091050Z AUTO 21012KT 10SM OVC018 09/06 A2994 RMK A01
KSCX 091035Z AUTO 20011KT 10SM OVC018 09/06 A2995 RMK A01
KSCX 091015Z AUTO 20012KT 10SM OVC018 09/06 A2996 RMK A01
KSCX 090955Z AUTO 20011KT 10SM OVC019 09/06 A2996 RMK A01
KSCX 090935Z AUTO 20007G19KT 10SM OVC019 09/06 A2997 RMK A01
KSCX 090915Z AUTO 20009G15KT 10SM OVC020 09/06 A2996 RMK A01
KSCX 090855Z AUTO 21009KT 10SM OVC021 09/06 A2996 RMK A01
KSCX 090835Z AUTO 21010KT 10SM OVC022 10/06 A2998 RMK A01
KSCX 090815Z AUTO 21008KT 10SM OVC022 09/06 A2997 RMK A01
KSCX 090755Z AUTO 20008KT 10SM OVC022 09/06 A2998 RMK A01
KSCX 090735Z AUTO 20008KT 7SM OVC023 10/05 A2999 RMK A01
KSCX 090715Z AUTO 22007G14KT 10SM OVC023 10/04 A3000 RMK A01
KSCX 090655Z AUTO 21007KT 10SM OVC023 10/04 A3000 RMK A01
KSCX 090635Z AUTO 21011KT 10SM BKN025 BKN029 OVC038 10/04 A3002 RMK A01
KSCX 090615Z AUTO 20011G17KT 10SM FEW030 BKN039 OVC100 10/03 A3002 RMK A01
KSCX 090555Z AUTO 20011G18KT 10SM SCT026 BKN040 OVC120 10/03 A3003 RMK A01
KSCX 090535Z AUTO 22009G16KT 10SM BKN025 OVC042 10/03 A3004 RMK A01
KSCX 090515Z AUTO 21012G18KT 10SM BKN025 BKN038 OVC120 10/03 A3004 RMK A01
KSCX 090455Z AUTO 20014KT 10SM BKN024 BKN038 OVC060 10/03 A3005 RMK A01
KSCX 090435Z AUTO 21009KT 10SM OVC025 11/03 A3006 RMK A01
KSCX 090415Z AUTO 21008KT 10SM BKN026 BKN033 OVC050 10/03 A3005 RMK A01
KSCX 090355Z AUTO 21008KT 10SM FEW045 OVC055 10/03 A3005 RMK A01
KSCX 090335Z AUTO 20007KT 10SM FEW030 BKN055 OVC065 11/03 A3006 RMK A01
KSCX 090315Z AUTO 21007KT 10SM SCT036 BKN060 OVC070 11/03 A3005 RMK A01
KSCX 090255Z AUTO 19007KT 10SM FEW060 OVC070 11/03 A3005 RMK A01
KSCX 090235Z AUTO 20006KT 10SM SCT028 SCT037 OVC070 11/03 A3007 RMK A01
KSCX 090215Z AUTO 21008KT 10SM SCT029 SCT037 OVC070 11/03 A3008 RMK A01
KSCX 090155Z AUTO 21009G14KT 10SM FEW031 BKN065 OVC075 11/03 A3008 RMK A01
KSCX 090135Z AUTO 21012KT 10SM FEW050 BKN075 11/03 A3008 RMK A01
KSCX 090115Z AUTO 20007KT 10SM FEW041 SCT048 OVC070 11/04 A3008 RMK A01
KSCX 090055Z AUTO 20006KT 10SM SCT038 BKN044 OVC050 11/04 A3010 RMK A01
KSCX 090035Z AUTO 20006KT 10SM SCT036 BKN048 OVC075 11/04 A3009 RMK A01
KSCX 090015Z AUTO 20008KT 10SM FEW034 BKN048 OVC075 11/04 A3009 RMK A01
KSCX 082355Z AUTO 19006KT 10SM BKN048 OVC070 11/04 A3009 RMK A01
KSCX 082335Z AUTO 18004KT 10SM FEW045 OVC070 11/04 A3009 RMK A01
KSCX 082315Z AUTO 18005KT 10SM FEW046 OVC065 12/04 A3010 RMK A01
KSCX 082255Z AUTO 18006KT 10SM FEW038 FEW044 OVC065 11/04 A3009 RMK A01
KSCX 082235Z AUTO 20009KT 10SM SCT038 SCT044 OVC065 11/04 A3011 RMK A01
KSCX 082215Z AUTO 20007KT 10SM BKN041 OVC065 12/04 A3011 RMK A01
KSCX 082155Z AUTO 21006G12KT 10SM SCT042 OVC065 12/04 A3012 RMK A01
KSCX 082135Z AUTO 19008KT 10SM BKN043 OVC065 12/04 A3011 RMK A01
KSCX 082115Z AUTO 21011KT 10SM OVC043 12/04 A3012 RMK A01
KSCX 082055Z AUTO 20014G20KT 10SM BKN045 BKN055 OVC060 13/04 A3012 RMK A01
KSCX 082035Z AUTO 21016G25KT 10SM BKN045 OVC060 13/04 A3013 RMK A01
KSCX 082015Z AUTO 21014G22KT 10SM SCT046 BKN060 13/04 A3013 RMK A01
KSCX 081955Z AUTO 20011G17KT 10SM SCT060 13/04 A3013 RMK A01
KSCX 081935Z AUTO 20019G24KT 10SM FEW050 FEW055 13/04 A3013 RMK A01
KSCX 081915Z AUTO 19012G18KT 160V220 10SM SCT055 13/04 A3014 RMK A01
KSCX 081855Z AUTO 21010G24KT 10SM BKN055 13/04 A3015 RMK A01
KSCX 081835Z AUTO 19014KT 10SM OVC055 12/04 A3017 RMK A01
KSCX 081815Z AUTO 20015G22KT 10SM OVC055 13/04 A3017 RMK A01
KSCX 081755Z AUTO 20017G25KT 10SM OVC050 12/03 A3018 RMK A01
KSCX 081735Z AUTO 20014G21KT 170V240 10SM SCT055 13/04 A3019 RMK A01
KSCX 081715Z AUTO 19010G18KT 10SM CLR 13/04 A3020 RMK A01
KSCX 081655Z AUTO 20012G19KT 10SM CLR 12/04 A3020 RMK A01
KSCX 081635Z AUTO 21010G17KT 10SM CLR 12/04 A3022 RMK A01
KSCX 081615Z AUTO 21009KT 10SM CLR 11/05 A3024 RMK A01
KSCX 081555Z AUTO 21007KT 10SM CLR 11/05 A3024 RMK A01
KSCX 081535Z AUTO 19005KT 10SM CLR 09/05 A3025 RMK A01
KSCX 081515Z AUTO 18007KT 10SM CLR 08/04 A3025 RMK A01
KSCX 081455Z AUTO 18005KT 10SM CLR 07/04 A3025 RMK A01
KSCX 081435Z AUTO 20006KT 10SM CLR 07/04 A3026 RMK A01
KSCX 081415Z AUTO 20005KT 10SM CLR 05/03 A3026 RMK A01
KSCX 081355Z AUTO 21006KT 10SM CLR 06/04 A3026 RMK A01
KSCX 081335Z AUTO 21004KT 10SM CLR 02/02 A3026 RMK A01
KSCX 081315Z AUTO 00000KT 10SM CLR 01/01 A3025 RMK A01
KSCX 081255Z AUTO 00000KT 10SM CLR 01/01 A3025 RMK A01
KSCX 081235Z AUTO 00000KT 10SM CLR 01/00 A3024 RMK A01
KSCX 081215Z AUTO 00000KT 10SM CLR 02/01 A3024 RMK A01
KSCX 081155Z AUTO 00000KT 10SM CLR M00/M01 A3023 RMK A01
KSCX 081135Z AUTO 00000KT 8SM CLR M01/M01 A3023 RMK A01
KSCX 081115Z AUTO 21003KT 10SM CLR 00/00 A3023 RMK A01
KSCX 081055Z AUTO 00000KT 9SM CLR 00/M00 A3022 RMK A01
KSCX 081035Z AUTO 00000KT 10SM CLR 01/01 A3022 RMK A01
KSCX 081015Z AUTO 00000KT 10SM CLR 01/01 A3023 RMK A01
KSCX 080955Z AUTO 00000KT 9SM CLR 01/01 A3023 RMK A01
KSCX 080935Z AUTO 00000KT 8SM CLR M01/M01 A3023 RMK A01
KSCX 080915Z AUTO 00000KT 9SM CLR M01/M01 A3024 RMK A01
KSCX 080855Z AUTO 00000KT 7SM CLR M01/M01 A3024 RMK A01
KSCX 080835Z AUTO 00000KT 7SM CLR M01/M01 A3024 RMK A01
KSCX 080815Z AUTO 00000KT 4SM BR FEW036 M00/M00 A3024 RMK A01
KSCX 080755Z AUTO 00000KT 4SM BR FEW038 01/01 A3025 RMK A01
KSCX 080735Z AUTO 00000KT 5SM BR FEW036 FEW042 M00/M00 A3024 RMK A01
KSCX 080715Z AUTO 00000KT 5SM BR SCT034 SCT040 M00/M00 A3024 RMK A01
KSCX 080655Z AUTO 00000KT 5SM BR SCT032 BKN038 M00/M00 A3025 RMK A01
KSCX 080635Z AUTO 00000KT 5SM BR BKN032 BKN039 01/00 A3025 RMK A01
KSCX 080615Z AUTO 00000KT 6SM BR BKN033 BKN039 00/M00 A3025 RMK A01
KSCX 080555Z AUTO 00000KT 4SM BR BKN034 00/M00 A3025 RMK A01
KSCX 080535Z AUTO 00000KT 8SM BKN035 01/01 A3025 RMK A01
KSCX 080515Z AUTO 00000KT 10SM SCT035 SCT043 02/01 A3026 RMK A01
KSCX 080455Z AUTO 00000KT 7SM FEW038 01/01 A3025 RMK A01
KSCX 080435Z AUTO 00000KT 10SM SCT036 03/02 A3025 RMK A01
KSCX 080415Z AUTO 00000KT 10SM SCT037 03/02 A3025 RMK A01
KSCX 080355Z AUTO 00000KT 10SM FEW038 03/02 A3025 RMK A01
KSCX 080335Z AUTO 00000KT 8SM CLR 02/01 A3026 RMK A01
KSCX 080315Z AUTO 00000KT 10SM CLR 03/02 A3026 RMK A01
KSCX 080255Z AUTO 00000KT 10SM CLR 03/02 A3027 RMK A01
KSCX 080235Z AUTO 00000KT 10SM CLR 03/02 A3027 RMK A01
KSCX 080215Z AUTO 03003KT 10SM CLR 03/02 A3027 RMK A01
KSCX 080155Z AUTO 02005KT 10SM CLR 03/02 A3027 RMK A01
KSCX 080135Z AUTO 02006KT 10SM CLR 04/02 A3028 RMK A01
KSCX 080115Z AUTO 02006KT 10SM FEW034 04/02 A3028 RMK A01
KSCX 080055Z AUTO 02006KT 10SM CLR 04/02 A3028 RMK A01
KSCX 080035Z AUTO 02006KT 10SM CLR 05/03 A3028 RMK A01